This is the latest recevied weather packets stored in our database for station/object DM4XI-13. If no packets are shown the sender has not sent any weather packets the latest 10 day(s).
| Time | Temp. | Humidity | Pressure | Rain* | Wind** | Luminosity | Snow |
|---|---|---|---|---|---|---|---|
| 1777190938 | 11.11° C | 50% | 1020.7 hPa | 0 mm | 1.34 m/s, 24° | 415 W/m² | - |
| 1777190877 | 11.67° C | 50% | 1020.8 hPa | 0 mm | 1.34 m/s, 247° | 415 W/m² | - |
| 1777190816 | 11.67° C | 50% | 1020.8 hPa | 0 mm | 1.34 m/s, 12° | 413 W/m² | - |
| 1777190755 | 11.67° C | 50% | 1020.7 hPa | 0 mm | 1.79 m/s, 26° | 410 W/m² | - |
| 1777190694 | 11.11° C | 50% | 1020.7 hPa | 0 mm | 1.34 m/s, 35° | 408 W/m² | - |
| 1777190633 | 11.11° C | 51% | 1020.9 hPa | 0 mm | 0.45 m/s, 103° | 406 W/m² | - |
| 1777190572 | 11.11° C | 53% | 1020.7 hPa | 0 mm | 0.45 m/s, 150° | 403 W/m² | - |
| 1777190511 | 11.67° C | 50% | 1020.8 hPa | 0 mm | 0.89 m/s, 21° | 401 W/m² | - |
| 1777190451 | 11.67° C | 50% | 1020.8 hPa | 0 mm | 0.45 m/s, 277° | 397 W/m² | - |
| 1777190389 | 11.67° C | 49% | 1021 hPa | 0 mm | 1.34 m/s, 345° | 397 W/m² | - |
| 1777190328 | 11.67° C | 51% | 1020.8 hPa | 0 mm | 0.45 m/s, 190° | 395 W/m² | - |
| 1777190268 | 11.67° C | 53% | 1020.9 hPa | 0 mm | 1.34 m/s, 11° | 393 W/m² | - |
| 1777190207 | 11.11° C | 53% | 1020.9 hPa | 0 mm | 1.34 m/s, 306° | 391 W/m² | - |
| 1777190146 | 11.11° C | 54% | 1020.8 hPa | 0 mm | 0.89 m/s, 230° | 387 W/m² | - |
| 1777190084 | 11.11° C | 54% | 1020.8 hPa | 0 mm | 1.34 m/s, 319° | 387 W/m² | - |
| 1777190023 | 11.11° C | 54% | 1020.6 hPa | 0 mm | 0.45 m/s, 192° | 381 W/m² | - |
| 1777189963 | 11.11° C | 52% | 1020.7 hPa | 0 mm | 1.34 m/s, 359° | 378 W/m² | - |
| 1777189901 | 11.11° C | 55% | 1020.7 hPa | 0 mm | 0.45 m/s, 260° | 377 W/m² | - |
| 1777189841 | 11.11° C | 54% | 1020.8 hPa | 0 mm | 0.89 m/s, 310° | 375 W/m² | - |
| 1777189779 | 11.11° C | 53% | 1020.7 hPa | 0 mm | 0.89 m/s, 13° | 370 W/m² | - |
| 1777189719 | 11.11° C | 53% | 1020.6 hPa | 0 mm | 0 m/s | 365 W/m² | - |
| 1777189657 | 10.56° C | 53% | 1020.6 hPa | 0 mm | 0.89 m/s, 331° | 362 W/m² | - |
| 1777189596 | 10.56° C | 55% | 1020.7 hPa | 0 mm | 0.45 m/s, 246° | 364 W/m² | - |
| 1777189536 | 10.56° C | 56% | 1020.8 hPa | 0 mm | 0 m/s | 364 W/m² | - |
| 1777189474 | 10.56° C | 56% | 1020.7 hPa | 0 mm | 0.89 m/s, 31° | 360 W/m² | - |
* Rain latest hour (hover to see other rain measurements)
** Current wind speed in m/s (hover to see current wind gust speed)